Time;durP1;ratioP1;P1;durP2;ratioP2;P2;SDS_P1;SDS_P2;PMS_P1;PMS_P2;Temp;Humidity;BMP_temperature;BMP_pressure;BME280_temperature;BME280_humidity;BME280_pressure;Samples;Min_cycle;Max_cycle;Signal;HPM_P1;HPM_P2
2022/05/15 00:00:43;;;;;;;19.23;13.68;;;;;;;18.09;41.80;99369.38;5087328;28;20105;-73
2022/05/15 00:03:18;;;;;;;18.42;12.50;;;;;;;17.99;41.75;99366.63;5086720;28;20040;-73
2022/05/15 00:05:53;;;;;;;13.90;9.25;;;;;;;18.01;42.37;99361.97;5087095;28;20040;-73
2022/05/15 00:08:31;;;;;;;8.68;4.43;;;;;;;18.04;42.84;99360.84;5087149;28;20041;-72
2022/05/15 00:11:04;;;;;;;9.63;5.28;;;;;;;17.99;41.65;99363.94;5087153;28;20362;-73
2022/05/15 00:13:37;;;;;;;5.47;3.90;;;;;;;18.06;41.97;99361.56;5087152;28;20051;-73
2022/05/15 00:16:10;;;;;;;5.90;3.50;;;;;;;18.06;42.00;99362.44;5086439;28;20046;-73
2022/05/15 00:18:43;;;;;;;6.60;4.13;;;;;;;18.07;41.78;99366.81;5087155;28;20048;-73
2022/05/15 00:21:15;;;;;;;4.93;3.17;;;;;;;18.12;41.85;99363.72;5086798;28;20048;-73
2022/05/15 00:23:49;;;;;;;5.13;3.42;;;;;;;18.16;42.07;99374.06;5086282;28;20048;-72
2022/05/15 00:26:21;;;;;;;5.65;3.20;;;;;;;18.05;42.25;99375.97;5087003;28;20036;-72
2022/05/15 00:28:57;;;;;;;5.30;3.72;;;;;;;18.02;42.38;99393.16;5085850;28;20056;-73
2022/05/15 00:31:29;;;;;;;9.70;6.80;;;;;;;18.02;42.23;99373.56;5086558;28;20090;-73
2022/05/15 00:34:02;;;;;;;23.88;19.40;;;;;;;18.04;42.22;99380.47;5086971;28;20281;-73
2022/05/15 00:36:34;;;;;;;24.77;20.63;;;;;;;18.07;42.05;99374.84;5086777;28;20037;-73
2022/05/15 00:39:08;;;;;;;28.95;22.00;;;;;;;18.03;42.59;99370.75;5085731;28;20040;-72
2022/05/15 00:41:41;;;;;;;15.48;11.00;;;;;;;17.71;42.14;99327.91;5085760;28;20129;-73
2022/05/15 00:44:13;;;;;;;12.80;7.75;;;;;;;17.91;42.30;99374.47;5086374;28;20036;-73
2022/05/15 00:46:46;;;;;;;6.72;4.32;;;;;;;17.92;41.87;99376.16;5086609;28;20269;-72
2022/05/15 00:49:18;;;;;;;6.88;3.50;;;;;;;17.95;42.16;99378.59;5085465;28;20311;-72
2022/05/15 00:51:54;;;;;;;4.38;3.30;;;;;;;17.93;42.25;99370.66;5085697;28;20044;-72
2022/05/15 00:54:33;;;;;;;4.55;3.00;;;;;;;17.26;42.99;99289.75;5086218;28;20050;-72
2022/05/15 00:57:13;;;;;;;6.03;3.10;;;;;;;17.90;43.16;99376.28;5085310;28;20050;-72
2022/05/15 00:59:49;;;;;;;6.68;2.95;;;;;;;17.91;42.30;99378.00;5086296;28;20087;-72
2022/05/15 01:02:24;;;;;;;3.25;2.47;;;;;;;17.56;42.49;99334.53;5085179;28;20047;-72
2022/05/15 01:04:57;;;;;;;8.20;6.15;;;;;;;17.48;42.66;99321.78;5085305;28;20040;-74
2022/05/15 01:07:30;;;;;;;9.23;6.50;;;;;;;17.79;42.69;99372.81;5085426;28;20044;-73
2022/05/15 01:10:05;;;;;;;10.55;8.02;;;;;;;17.78;43.55;99373.81;5085907;28;20041;-73
2022/05/15 01:12:40;;;;;;;11.68;8.25;;;;;;;17.81;43.40;99376.22;5086164;28;20044;-73
2022/05/15 01:15:18;;;;;;;13.02;10.07;;;;;;;17.77;43.63;99370.28;5086148;28;20036;-73
2022/05/15 01:18:11;;;;;;;15.00;11.55;;;;;;;17.80;43.34;99371.84;5086022;28;20064;-72
2022/05/15 01:20:40;;;;;;;12.13;7.55;;;;;;;17.24;43.44;99313.97;5085438;28;20059;-72
2022/05/15 01:23:09;;;;;;;10.05;6.70;;;;;;;17.75;44.16;99379.44;5084772;28;20332;-72
2022/05/15 01:25:38;;;;;;;7.38;5.38;;;;;;;16.96;43.85;99282.41;5085711;28;20197;-73
2022/05/15 01:28:08;;;;;;;9.88;4.53;;;;;;;17.73;44.28;99374.19;5085575;28;20048;-72
2022/05/15 01:30:40;;;;;;;5.85;3.80;;;;;;;17.75;44.03;99374.91;5085455;28;20056;-72
2022/05/15 01:33:10;;;;;;;6.82;4.05;;;;;;;16.76;43.68;99200.22;5085937;28;20300;-72
2022/05/15 01:35:38;;;;;;;5.95;4.28;;;;;;;17.56;43.58;99338.06;5085627;28;20067;-73
2022/05/15 01:38:07;;;;;;;8.93;7.35;;;;;;;17.76;44.17;99376.63;5084402;28;20052;-72
2022/05/15 01:40:37;;;;;;;7.60;5.57;;;;;;;17.77;44.36;99385.50;5085178;28;20064;-72
2022/05/15 01:43:05;;;;;;;9.98;7.60;;;;;;;17.74;44.27;99386.63;5085491;28;20052;-72
2022/05/15 01:45:33;;;;;;;11.10;8.43;;;;;;;17.68;44.48;99380.91;5085240;28;20044;-72
2022/05/15 01:48:01;;;;;;;7.78;5.07;;;;;;;17.43;44.55;99361.50;5085424;28;20064;-72
2022/05/15 01:50:28;;;;;;;5.07;3.70;;;;;;;17.26;45.11;99349.50;5085462;28;20048;-72
2022/05/15 01:52:56;;;;;;;5.57;3.63;;;;;;;17.47;44.72;99386.22;5085527;28;20063;-73
2022/05/15 01:55:24;;;;;;;9.23;4.13;;;;;;;17.48;44.94;99382.56;5084397;28;20316;-72
2022/05/15 01:57:53;;;;;;;5.78;3.72;;;;;;;17.46;45.30;99381.84;5085565;28;20056;-72
2022/05/15 02:00:23;;;;;;;5.93;3.45;;;;;;;16.88;45.35;99280.34;5085823;28;20056;-72
2022/05/15 02:02:51;;;;;;;5.85;3.60;;;;;;;17.42;45.25;99375.88;5085478;28;20059;-73
2022/05/15 02:05:20;;;;;;;5.05;3.63;;;;;;;17.36;45.50;99378.22;5085242;28;20064;-73
2022/05/15 02:07:47;;;;;;;6.13;3.40;;;;;;;17.23;45.58;99387.25;5085444;28;20064;-72
2022/05/15 02:10:16;;;;;;;4.93;3.65;;;;;;;17.21;46.23;99383.00;5085448;28;20204;-72
2022/05/15 02:12:44;;;;;;;7.03;3.97;;;;;;;16.98;45.66;99342.88;5084095;28;20044;-72
2022/05/15 02:15:14;;;;;;;7.25;3.72;;;;;;;17.01;46.61;99341.75;5086251;28;20106;-73
2022/05/15 02:17:41;;;;;;;4.60;3.33;;;;;;;16.97;45.73;99341.16;5089066;28;20052;-72
2022/05/15 02:20:11;;;;;;;4.38;3.08;;;;;;;17.19;46.10;99379.56;5089324;28;20057;-73
2022/05/15 02:22:39;;;;;;;6.30;3.75;;;;;;;16.92;46.40;99345.19;5089042;28;20056;-72
2022/05/15 02:25:09;;;;;;;4.00;2.90;;;;;;;16.85;45.77;99319.91;5088913;28;20102;-73
2022/05/15 02:27:36;;;;;;;4.40;2.92;;;;;;;15.92;46.17;99204.38;5089082;28;20052;-73
2022/05/15 02:30:05;;;;;;;6.32;3.03;;;;;;;16.76;46.39;99316.16;5088681;28;20182;-74
2022/05/15 02:32:34;;;;;;;5.18;3.13;;;;;;;16.81;46.58;99321.97;5088949;28;20071;-73
2022/05/15 02:35:02;;;;;;;4.22;2.97;;;;;;;17.08;46.03;99367.06;5088972;28;20064;-73
2022/05/15 02:37:29;;;;;;;4.05;2.90;;;;;;;16.94;46.17;99349.44;5089007;28;20067;-73
2022/05/15 02:39:56;;;;;;;3.60;2.35;;;;;;;17.07;45.96;99364.50;5087738;28;20053;-73
2022/05/15 02:42:24;;;;;;;4.88;2.90;;;;;;;16.62;46.59;99314.56;5087587;28;20376;-73
2022/05/15 02:44:52;;;;;;;4.32;2.90;;;;;;;16.79;46.63;99366.75;5088765;28;20190;-73
2022/05/15 02:47:19;;;;;;;4.15;2.75;;;;;;;16.82;46.55;99377.22;5087671;28;20224;-73
2022/05/15 02:52:33;;;;;;;5.82;2.65;;;;;;;16.85;46.42;99371.59;5088516;28;20048;-73
2022/05/15 02:55:00;;;;;;;3.97;2.70;;;;;;;16.75;46.33;99378.69;5088399;28;20064;-73
2022/05/15 02:57:27;;;;;;;3.95;2.35;;;;;;;16.48;46.62;99335.38;5088522;28;20110;-73
2022/05/15 02:59:55;;;;;;;5.70;3.30;;;;;;;16.74;46.30;99385.00;5088450;28;20114;-72
2022/05/15 03:02:22;;;;;;;3.97;2.50;;;;;;;16.67;46.50;99389.13;5088483;28;20110;-73
2022/05/15 03:04:51;;;;;;;4.60;2.80;;;;;;;16.69;47.17;99384.50;5088591;28;20040;-73
2022/05/15 03:07:19;;;;;;;3.47;2.30;;;;;;;16.68;46.36;99388.16;5088330;28;20086;-73
2022/05/15 03:09:47;;;;;;;3.70;2.83;;;;;;;16.71;46.62;99385.25;5087207;28;20110;-72
2022/05/15 03:12:14;;;;;;;4.65;2.58;;;;;;;15.05;46.51;99115.88;5088214;28;20243;-73
2022/05/15 03:14:42;;;;;;;4.43;2.58;;;;;;;16.66;46.61;99390.97;5087875;28;20052;-73
2022/05/15 03:17:09;;;;;;;3.97;2.45;;;;;;;16.56;46.49;99373.91;5087855;28;20056;-73
2022/05/15 03:19:36;;;;;;;7.10;2.97;;;;;;;16.62;46.45;99392.16;5088139;28;20078;-72
2022/05/15 03:22:05;;;;;;;5.63;2.55;;;;;;;16.35;46.76;99360.41;5088019;28;20056;-73
2022/05/15 03:24:33;;;;;;;3.20;2.03;;;;;;;16.56;47.10;99399.81;5087921;28;20078;-73
2022/05/15 03:27:00;;;;;;;4.40;2.53;;;;;;;16.44;46.66;99390.94;5085838;28;20056;-73
2022/05/15 03:29:28;;;;;;;5.20;2.38;;;;;;;16.48;46.81;99404.91;5087708;28;20060;-73
2022/05/15 03:31:56;;;;;;;3.10;2.03;;;;;;;16.42;47.07;99403.56;5087805;28;20048;-73
2022/05/15 03:34:24;;;;;;;3.47;2.10;;;;;;;16.48;46.56;99402.25;5088155;28;20048;-73
2022/05/15 03:36:53;;;;;;;5.22;2.42;;;;;;;16.47;46.96;99406.75;5088078;28;20117;-73
2022/05/15 03:39:22;;;;;;;6.40;2.55;;;;;;;16.47;46.85;99405.88;5087868;28;20126;-73
2022/05/15 03:41:50;;;;;;;3.13;2.35;;;;;;;16.55;46.60;99406.97;5088151;28;20064;-73
2022/05/15 03:44:18;;;;;;;4.07;2.55;;;;;;;16.20;46.27;99348.25;5087678;28;20056;-73
2022/05/15 03:46:47;;;;;;;3.75;2.15;;;;;;;16.29;46.28;99365.38;5087473;28;20305;-73
2022/05/15 03:49:15;;;;;;;4.38;2.28;;;;;;;15.89;46.49;99314.19;5087301;28;20117;-73
2022/05/15 03:51:43;;;;;;;6.15;2.70;;;;;;;16.52;46.62;99409.91;5087272;28;20102;-73
2022/05/15 03:54:10;;;;;;;3.08;2.42;;;;;;;16.51;46.86;99410.03;5087318;28;20249;-73
2022/05/15 03:56:52;;;;;;;5.03;2.20;;;;;;;16.22;47.04;99366.84;5087377;28;20052;-73
2022/05/15 03:59:23;;;;;;;5.20;2.90;;;;;;;16.09;47.01;99366.09;5087191;28;20064;-73
2022/05/15 04:01:51;;;;;;;3.35;2.40;;;;;;;16.45;47.05;99406.00;5087099;28;20090;-73
2022/05/15 04:04:18;;;;;;;3.78;2.83;;;;;;;15.74;46.97;99285.97;5087253;28;20056;-73
2022/05/15 04:06:46;;;;;;;4.53;3.17;;;;;;;16.52;46.83;99414.41;5087245;28;20056;-73
2022/05/15 04:09:14;;;;;;;5.78;2.70;;;;;;;16.56;46.85;99413.19;5086879;28;20373;-73
2022/05/15 04:11:43;;;;;;;5.68;2.97;;;;;;;16.23;46.89;99358.69;5086830;28;20060;-73
2022/05/15 04:14:10;;;;;;;3.83;2.50;;;;;;;16.62;46.38;99424.25;5086826;28;20061;-73
2022/05/15 04:16:38;;;;;;;3.25;2.30;;;;;;;16.53;47.00;99421.47;5087072;28;20056;-73
2022/05/15 04:19:05;;;;;;;5.57;2.65;;;;;;;16.58;46.82;99422.78;5086950;28;20251;-73
2022/05/15 04:21:37;;;;;;;3.53;2.53;;;;;;;16.56;46.77;99429.25;5086510;28;20056;-73
2022/05/15 04:24:06;;;;;;;3.53;2.85;;;;;;;16.58;46.78;99424.63;5086827;28;20068;-73
2022/05/15 04:26:34;;;;;;;3.20;2.42;;;;;;;15.87;46.66;99300.09;5086553;28;20056;-73
2022/05/15 04:29:04;;;;;;;4.63;2.30;;;;;;;16.62;47.56;99431.44;5086309;28;20052;-73
2022/05/15 04:31:32;;;;;;;3.85;2.63;;;;;;;15.98;47.11;99337.53;5086753;28;20102;-73
2022/05/15 04:33:59;;;;;;;3.50;2.60;;;;;;;16.67;47.17;99432.81;5086759;28;20320;-73
2022/05/15 04:36:26;;;;;;;5.40;2.35;;;;;;;16.37;46.83;99392.38;5086853;28;20102;-73
2022/05/15 04:38:53;;;;;;;4.55;2.53;;;;;;;16.71;46.57;99437.91;5086349;28;20062;-73
2022/05/15 04:41:21;;;;;;;8.18;3.53;;;;;;;15.07;46.88;99167.34;5086592;28;20359;-73
2022/05/15 04:43:49;;;;;;;3.40;2.58;;;;;;;16.76;46.70;99441.94;5086665;28;20045;-73
2022/05/15 04:46:17;;;;;;;4.05;2.20;;;;;;;16.81;47.14;99450.44;5085426;28;20113;-73
2022/05/15 04:48:45;;;;;;;5.20;2.70;;;;;;;16.44;46.85;99390.06;5086467;28;20064;-73
2022/05/15 04:51:14;;;;;;;4.57;2.45;;;;;;;16.93;46.52;99448.63;5086456;28;20102;-73
2022/05/15 04:53:41;;;;;;;6.55;2.67;;;;;;;17.00;46.67;99453.34;5086706;28;20320;-73
2022/05/15 04:56:09;;;;;;;3.83;2.85;;;;;;;17.03;46.78;99449.59;5086047;28;20057;-73
2022/05/15 04:58:36;;;;;;;4.22;2.80;;;;;;;17.07;46.50;99453.72;5086285;28;20325;-73
2022/05/15 05:01:03;;;;;;;4.35;2.30;;;;;;;17.09;46.64;99449.09;5088183;28;20098;-73
2022/05/15 05:03:32;;;;;;;4.25;2.97;;;;;;;17.08;46.85;99449.22;5086947;28;20056;-73
2022/05/15 05:05:59;;;;;;;3.45;2.10;;;;;;;17.12;46.56;99464.06;5086377;28;20064;-74
2022/05/15 05:08:27;;;;;;;3.55;2.15;;;;;;;17.19;46.85;99458.09;5085344;28;20394;-73
2022/05/15 05:10:54;;;;;;;4.47;2.83;;;;;;;17.24;46.59;99463.09;5086066;28;20060;-73
2022/05/15 05:13:21;;;;;;;4.25;2.55;;;;;;;17.05;47.13;99423.53;5085860;28;20378;-73
2022/05/15 05:15:49;;;;;;;5.25;2.50;;;;;;;17.08;47.06;99433.16;5085920;28;20170;-73
2022/05/15 05:18:17;;;;;;;4.50;2.45;;;;;;;17.33;46.80;99467.72;5085641;28;20190;-73
2022/05/15 05:20:47;;;;;;;3.22;2.40;;;;;;;17.35;46.73;99471.13;5085668;28;20056;-73
2022/05/15 05:23:15;;;;;;;7.40;2.53;;;;;;;17.37;46.59;99469.16;5085820;28;20063;-73
2022/05/15 05:25:43;;;;;;;3.88;2.40;;;;;;;17.42;46.51;99471.47;5085369;28;20263;-73
2022/05/15 05:28:11;;;;;;;3.67;2.30;;;;;;;17.46;46.42;99472.94;5085571;28;20106;-73
2022/05/15 05:30:39;;;;;;;3.97;2.35;;;;;;;17.27;46.29;99439.59;5085673;28;20121;-73
2022/05/15 05:33:07;;;;;;;5.00;2.47;;;;;;;16.80;46.38;99376.47;5085321;28;20094;-73
2022/05/15 05:35:37;;;;;;;4.45;2.50;;;;;;;17.59;46.25;99468.25;5085394;28;20052;-73
2022/05/15 05:38:06;;;;;;;2.92;1.98;;;;;;;17.61;46.53;99483.28;5084248;28;20098;-73
2022/05/15 05:40:34;;;;;;;3.88;2.67;;;;;;;17.65;46.17;99488.38;5085300;28;20064;-73
2022/05/15 05:43:02;;;;;;;3.90;2.50;;;;;;;17.68;46.05;99472.91;5086536;28;20260;-73
2022/05/15 05:45:29;;;;;;;4.80;2.95;;;;;;;17.71;45.90;99477.16;5085507;28;20063;-73
2022/05/15 05:47:57;;;;;;;3.10;2.15;;;;;;;16.73;46.02;99347.66;5085436;28;20056;-73
2022/05/15 05:50:26;;;;;;;4.53;2.40;;;;;;;17.74;46.25;99485.78;5084636;28;20102;-73
2022/05/15 05:52:55;;;;;;;3.50;2.70;;;;;;;17.79;45.64;99483.59;5085335;28;20052;-73
2022/05/15 05:55:25;;;;;;;5.78;2.67;;;;;;;17.82;45.90;99479.78;5085268;28;20094;-73
2022/05/15 05:57:53;;;;;;;5.22;2.38;;;;;;;17.10;45.65;99373.16;5085361;28;20052;-73
2022/05/15 06:00:24;;;;;;;3.95;2.63;;;;;;;15.54;45.83;99082.66;5085220;28;20308;-73
2022/05/15 06:02:52;;;;;;;3.42;2.58;;;;;;;17.76;45.76;99457.03;5084861;28;20056;-73
2022/05/15 06:05:19;;;;;;;3.95;2.50;;;;;;;17.98;46.42;99482.03;5085323;28;20060;-73
2022/05/15 06:07:46;;;;;;;4.60;3.25;;;;;;;17.14;46.13;99342.47;5085124;28;20052;-73
2022/05/15 06:10:14;;;;;;;4.93;3.05;;;;;;;18.03;46.26;99480.69;5085180;28;20053;-73
2022/05/15 06:12:43;;;;;;;6.90;3.55;;;;;;;18.07;45.83;99494.69;5084876;28;20266;-74
2022/05/15 06:15:11;;;;;;;8.07;3.47;;;;;;;17.87;45.80;99459.66;5085056;28;20114;-73
2022/05/15 06:17:39;;;;;;;5.10;2.63;;;;;;;18.06;46.40;99501.88;5085006;28;20056;-73
2022/05/15 06:20:10;;;;;;;3.75;2.95;;;;;;;18.08;46.43;99489.19;5083841;28;20089;-73
2022/05/15 06:22:37;;;;;;;3.60;2.22;;;;;;;18.16;46.46;99496.59;5085213;28;20052;-73
2022/05/15 06:25:06;;;;;;;14.00;3.28;;;;;;;18.05;46.11;99461.78;5084613;28;20064;-73
2022/05/15 06:27:33;;;;;;;3.20;2.22;;;;;;;18.31;45.85;99489.09;5084984;28;20052;-73
2022/05/15 06:30:02;;;;;;;3.95;2.55;;;;;;;18.34;45.96;99483.47;5084394;28;20057;-73
2022/05/15 06:32:30;;;;;;;4.25;2.88;;;;;;;17.89;46.37;99405.91;5084987;28;20178;-73
2022/05/15 06:34:57;;;;;;;5.05;2.80;;;;;;;18.29;45.93;99459.69;5083579;28;20052;-73
2022/05/15 06:37:24;;;;;;;5.55;2.90;;;;;;;18.56;46.54;99486.03;5084620;28;20052;-73
2022/05/15 06:39:51;;;;;;;5.30;3.50;;;;;;;18.32;45.95;99435.28;5084476;28;20086;-73
2022/05/15 06:42:18;;;;;;;7.18;3.25;;;;;;;18.75;45.79;99496.03;5084802;28;20044;-73
2022/05/15 06:44:46;;;;;;;4.10;3.03;;;;;;;18.89;45.18;99490.31;5084778;28;20235;-73
2022/05/15 06:47:15;;;;;;;5.47;3.35;;;;;;;19.11;45.04;99492.81;5084811;28;20057;-73
2022/05/15 06:49:42;;;;;;;4.28;3.08;;;;;;;19.44;44.48;99489.00;5084683;28;20048;-73
2022/05/15 06:52:09;;;;;;;4.47;3.10;;;;;;;19.76;43.63;99478.00;5084765;28;20110;-73
2022/05/15 06:54:37;;;;;;;7.47;3.35;;;;;;;20.03;43.13;99492.66;5085708;28;20048;-73
2022/05/15 06:59:48;;;;;;;5.22;3.35;;;;;;;20.49;42.96;99490.09;5077813;28;20106;-73
2022/05/15 07:02:17;;;;;;;4.80;3.30;;;;;;;20.55;42.61;99483.28;5087577;28;20089;-74
2022/05/15 07:04:45;;;;;;;4.20;2.80;;;;;;;20.65;42.56;99486.78;5088453;28;20064;-74
2022/05/15 07:07:13;;;;;;;4.78;3.10;;;;;;;20.83;42.44;99486.88;5088101;28;20064;-73
2022/05/15 07:09:40;;;;;;;3.58;2.78;;;;;;;21.05;41.91;99483.88;5088292;28;20102;-74
2022/05/15 07:12:09;;;;;;;4.25;2.70;;;;;;;21.25;41.91;99490.00;5088335;28;20119;-74
2022/05/15 07:14:37;;;;;;;4.00;2.80;;;;;;;21.45;41.42;99477.28;5087938;28;20102;-74
2022/05/15 07:17:05;;;;;;;6.10;3.00;;;;;;;21.34;41.02;99451.38;5087768;28;20247;-75
2022/05/15 07:19:34;;;;;;;5.05;2.47;;;;;;;21.67;40.22;99484.94;5088020;28;20078;-74
2022/05/15 07:22:01;;;;;;;5.40;3.05;;;;;;;21.82;40.01;99487.16;5088270;28;20041;-74
2022/05/15 07:24:29;;;;;;;5.72;2.92;;;;;;;22.00;39.80;99483.47;5087847;28;20048;-74
2022/05/15 07:26:56;;;;;;;6.25;3.00;;;;;;;22.08;39.21;99478.13;5087822;28;20121;-74
2022/05/15 07:29:24;;;;;;;6.15;2.97;;;;;;;21.95;39.15;99452.53;5087372;28;20243;-73
2022/05/15 07:31:53;;;;;;;6.35;3.03;;;;;;;22.31;38.91;99475.81;5088165;28;20056;-74
2022/05/15 07:34:21;;;;;;;6.57;3.33;;;;;;;22.48;38.48;99474.09;5087874;28;20056;-75
2022/05/15 07:36:52;;;;;;;4.43;2.72;;;;;;;22.49;38.07;99470.41;5087898;28;20251;-75
2022/05/15 07:39:21;;;;;;;5.50;2.83;;;;;;;22.35;37.67;99449.34;5087672;28;20048;-72
2022/05/15 07:41:49;;;;;;;6.72;2.70;;;;;;;22.49;37.36;99470.41;5087626;28;20246;-72
2022/05/15 07:44:17;;;;;;;6.53;3.78;;;;;;;22.62;37.91;99473.56;5087461;28;20086;-74
2022/05/15 07:46:45;;;;;;;5.65;3.05;;;;;;;22.89;37.75;99471.69;5087492;28;20060;-74
2022/05/15 07:49:13;;;;;;;4.05;2.83;;;;;;;22.42;37.51;99388.31;5087971;28;20064;-75
2022/05/15 07:51:44;;;;;;;6.13;3.60;;;;;;;23.30;36.87;99470.91;5087466;28;20243;-75
2022/05/15 07:54:14;;;;;;;6.32;2.45;;;;;;;23.46;36.51;99475.53;5087532;28;20098;-74
2022/05/15 07:56:41;;;;;;;6.30;2.85;;;;;;;23.51;36.72;99557.03;5087710;28;20178;-75
2022/05/15 07:59:09;;;;;;;4.15;2.97;;;;;;;23.62;36.76;99466.63;5087390;28;20044;-74
2022/05/15 08:01:36;;;;;;;4.30;2.85;;;;;;;23.82;36.63;99465.31;5087080;28;20060;-74
2022/05/15 08:04:04;;;;;;;5.20;3.22;;;;;;;23.91;35.52;99472.44;5087098;28;20098;-74
2022/05/15 08:09:18;;;;;;;4.97;2.85;;;;;;;23.78;35.53;99472.06;5087145;28;20040;-75
2022/05/15 08:11:46;;;;;;;3.38;2.20;;;;;;;23.87;35.87;99470.22;5086888;28;20086;-74
2022/05/15 08:14:13;;;;;;;4.50;2.55;;;;;;;21.98;35.59;99150.03;5086478;28;20057;-74
2022/05/15 08:16:40;;;;;;;5.35;3.17;;;;;;;24.01;35.66;99472.31;5087049;28;20056;-75
2022/05/15 08:24:41;;;;;;;6.13;2.70;;;;;;;24.51;33.67;99458.59;5086807;28;20044;-74
2022/05/15 08:27:10;;;;;;;3.85;2.28;;;;;;;24.31;34.47;99419.34;5086955;28;20060;-75
2022/05/15 08:29:38;;;;;;;5.22;2.50;;;;;;;24.72;34.78;99460.78;5086370;28;20260;-75
2022/05/15 08:32:06;;;;;;;4.95;2.88;;;;;;;24.87;34.46;99466.34;5086460;28;20060;-75
2022/05/15 08:34:35;;;;;;;9.77;2.58;;;;;;;24.83;33.51;99432.47;5086894;28;20048;-75
2022/05/15 08:37:03;;;;;;;5.43;2.92;;;;;;;24.88;34.13;99500.56;5086395;28;20324;-74
2022/05/15 08:39:31;;;;;;;18.33;3.60;;;;;;;24.94;33.45;99467.34;5085509;28;20052;-74
2022/05/15 08:42:20;;;;;;;4.60;3.03;;;;;;;25.06;32.00;99471.41;5086551;28;20064;-74
2022/05/15 08:44:47;;;;;;;6.57;2.80;;;;;;;25.23;32.98;99472.19;5086202;28;20072;-75
2022/05/15 08:47:24;;;;;;;5.30;2.38;;;;;;;24.66;31.44;99338.69;5085801;28;20105;-75
2022/05/15 08:49:57;;;;;;;10.55;2.80;;;;;;;25.55;31.28;99465.78;5086217;28;20060;-75
2022/05/15 08:52:27;;;;;;;6.18;2.80;;;;;;;25.14;32.24;99419.84;5084997;28;20056;-73
2022/05/15 08:55:02;;;;;;;4.97;3.00;;;;;;;25.46;31.09;99466.88;5086108;28;20060;-72
2022/05/15 08:57:39;;;;;;;10.52;3.40;;;;;;;24.76;30.43;99342.03;5084804;28;20263;-73
2022/05/15 09:00:11;;;;;;;5.68;2.50;;;;;;;25.83;31.33;99463.44;5085669;28;20057;-73
2022/05/15 09:02:41;;;;;;;3.30;2.30;;;;;;;25.94;30.69;99462.16;5085952;28;20056;-73
2022/05/15 09:05:10;;;;;;;4.80;2.42;;;;;;;26.01;30.30;99463.16;5085793;28;20052;-73
2022/05/15 09:07:52;;;;;;;4.90;2.13;;;;;;;26.11;28.33;99463.75;5085775;28;20320;-72
2022/05/15 09:10:30;;;;;;;7.68;3.05;;;;;;;25.91;28.15;99428.91;5084548;28;20063;-73
2022/05/15 09:13:06;;;;;;;5.20;2.33;;;;;;;25.99;28.98;99435.34;5085132;28;20064;-74
2022/05/15 09:15:38;;;;;;;7.05;2.28;;;;;;;26.11;28.56;99432.03;5085739;28;20052;-73
2022/05/15 09:18:06;;;;;;;3.92;2.17;;;;;;;26.26;28.65;99458.38;5085730;28;20053;-73
2022/05/15 09:20:47;;;;;;;4.35;2.20;;;;;;;26.16;27.60;99458.63;5085406;28;20062;-73
2022/05/15 09:23:22;;;;;;;8.10;3.00;;;;;;;26.14;27.47;99479.69;5084566;28;20048;-73
2022/05/15 09:25:55;;;;;;;4.55;2.58;;;;;;;26.25;27.39;99462.13;5084884;28;20166;-73
2022/05/15 09:28:26;;;;;;;4.43;2.67;;;;;;;25.81;27.93;99359.59;5085090;28;20069;-74
2022/05/15 09:30:56;;;;;;;4.50;2.13;;;;;;;26.40;28.71;99457.59;5085569;28;20060;-73
2022/05/15 09:33:44;;;;;;;3.72;2.35;;;;;;;26.38;26.07;99563.72;5085537;28;20055;-73
2022/05/15 09:36:22;;;;;;;6.57;2.42;;;;;;;26.47;26.20;99455.81;5085715;28;20090;-73
2022/05/15 09:38:51;;;;;;;4.68;2.10;;;;;;;26.55;28.40;99461.16;5085678;28;20129;-73
2022/05/15 09:44:08;;;;;;;4.28;2.65;;;;;;;26.71;27.80;99455.59;5085411;28;20040;-73
2022/05/15 09:46:39;;;;;;;6.32;2.97;;;;;;;26.76;26.17;99457.78;5085114;28;20056;-73
2022/05/15 09:49:19;;;;;;;3.30;1.83;;;;;;;26.52;26.98;99454.22;5085211;28;20346;-73
2022/05/15 09:51:49;;;;;;;4.22;2.00;;;;;;;26.49;26.19;99454.59;5085094;28;20056;-73
2022/05/15 09:54:31;;;;;;;4.00;2.25;;;;;;;25.87;25.58;99373.28;5084969;28;20104;-73
2022/05/15 09:57:10;;;;;;;3.78;1.85;;;;;;;26.59;25.91;99450.78;5085287;28;20193;-73
2022/05/15 09:59:40;;;;;;;4.70;1.95;;;;;;;26.66;27.14;99449.88;5085399;28;20052;-73
2022/05/15 10:02:18;;;;;;;3.47;2.28;;;;;;;26.65;26.91;99441.91;5085255;28;20052;-73
2022/05/15 10:04:49;;;;;;;4.90;2.35;;;;;;;26.71;27.62;99441.16;5084456;28;20082;-73
2022/05/15 10:07:31;;;;;;;6.60;3.13;;;;;;;26.85;27.39;99445.78;5084756;28;20053;-74
2022/05/15 10:10:15;;;;;;;3.65;2.08;;;;;;;26.97;27.18;99446.16;5085056;28;20296;-73
2022/05/15 10:12:44;;;;;;;12.63;3.10;;;;;;;26.88;28.02;99442.69;5084651;28;20098;-73
2022/05/15 10:15:16;;;;;;;4.40;2.42;;;;;;;26.74;27.59;99441.66;5084750;28;20263;-73
2022/05/15 10:17:49;;;;;;;7.72;4.00;;;;;;;26.81;28.00;99445.31;5084008;28;20121;-73
2022/05/15 10:20:22;;;;;;;4.20;2.50;;;;;;;26.91;27.31;99441.47;5084474;28;20056;-73
2022/05/15 10:22:56;;;;;;;5.85;2.53;;;;;;;26.81;27.96;99439.03;5085012;28;20121;-73
2022/05/15 10:25:34;;;;;;;5.18;3.22;;;;;;;26.99;27.43;99434.06;5084271;28;20220;-73
2022/05/15 10:28:16;;;;;;;7.95;3.10;;;;;;;27.23;27.40;99434.81;5084155;28;20060;-73
2022/05/15 10:30:58;;;;;;;4.50;2.42;;;;;;;26.44;26.68;99274.13;5084832;28;20118;-73
2022/05/15 10:33:25;;;;;;;3.85;1.98;;;;;;;27.33;27.85;99432.63;5084580;28;20105;-73
2022/05/15 10:36:00;;;;;;;4.82;2.97;;;;;;;27.11;27.17;99429.81;5084062;28;20052;-73
2022/05/15 10:38:40;;;;;;;4.45;2.70;;;;;;;26.96;27.87;99401.78;5087235;28;20106;-73
2022/05/15 10:41:16;;;;;;;3.97;2.30;;;;;;;26.59;27.97;99323.03;5088358;28;20354;-74
2022/05/15 10:43:55;;;;;;;4.53;2.75;;;;;;;27.09;27.81;99390.25;5088244;28;20110;-73
2022/05/15 10:46:34;;;;;;;5.68;2.63;;;;;;;27.14;27.63;99425.88;5088139;28;20064;-74
2022/05/15 10:49:16;;;;;;;3.55;2.25;;;;;;;27.04;28.01;99419.88;5088202;28;20114;-73
2022/05/15 10:51:55;;;;;;;6.05;2.58;;;;;;;26.96;28.46;99388.19;5087904;28;20056;-73
2022/05/15 10:57:29;;;;;;;3.80;2.33;;;;;;;27.00;28.40;99373.19;5087696;28;20048;-73
2022/05/15 11:00:05;;;;;;;6.18;2.50;;;;;;;27.19;28.13;99401.69;5087499;28;20057;-73
2022/05/15 11:03:05;;;;;;;3.30;2.42;;;;;;;27.18;28.42;99399.97;5087992;28;20196;-73
2022/05/15 11:05:34;;;;;;;5.20;2.80;;;;;;;26.89;29.39;99397.28;5087622;28;20101;-73
2022/05/15 11:08:21;;;;;;;3.40;2.20;;;;;;;26.61;29.02;99399.81;5087411;28;20064;-70
2022/05/15 11:11:00;;;;;;;4.28;2.58;;;;;;;26.66;29.22;99390.09;5087013;28;20052;-71
2022/05/15 11:13:47;;;;;;;4.15;2.22;;;;;;;26.80;28.16;99396.56;5087793;28;20090;-70
2022/05/15 11:16:24;;;;;;;3.90;2.20;;;;;;;27.03;28.38;99389.13;5087592;28;20048;-71
2022/05/15 11:19:20;;;;;;;6.30;2.65;;;;;;;27.08;28.04;99383.97;5087943;28;20369;-71
2022/05/15 11:21:55;;;;;;;4.47;2.83;;;;;;;26.75;28.32;99306.56;5087619;28;20106;-71
2022/05/15 11:24:32;;;;;;;9.85;3.17;;;;;;;27.26;28.37;99369.13;5087037;28;20048;-70
2022/05/15 11:27:05;;;;;;;4.85;2.40;;;;;;;26.98;28.27;99337.19;5087307;28;20098;-71
2022/05/15 11:29:41;;;;;;;5.38;3.05;;;;;;;27.29;28.21;99366.88;5087029;28;20060;-71
2022/05/15 11:32:33;;;;;;;7.10;3.38;;;;;;;27.42;27.80;99367.03;5087005;28;20057;-72
2022/05/15 11:35:26;;;;;;;10.30;3.13;;;;;;;27.46;26.79;99362.88;5087214;28;20075;-71
2022/05/15 11:38:02;;;;;;;4.28;2.50;;;;;;;27.45;28.16;99363.06;5087382;28;20122;-72
2022/05/15 11:40:34;;;;;;;16.92;7.32;;;;;;;27.39;27.99;99359.25;5087379;28;20135;-72
2022/05/15 11:43:34;;;;;;;4.97;2.67;;;;;;;27.45;28.21;99355.75;5087269;28;20057;-71
2022/05/15 11:46:04;;;;;;;5.03;2.92;;;;;;;27.31;28.92;99318.56;5087115;28;20048;-71
2022/05/15 11:48:33;;;;;;;5.90;2.75;;;;;;;27.46;28.10;99338.38;5086506;28;20308;-71
2022/05/15 11:51:05;;;;;;;4.38;2.65;;;;;;;27.59;27.72;99337.69;5086853;28;20053;-71
2022/05/15 11:53:37;;;;;;;4.70;2.65;;;;;;;27.56;27.92;99335.34;5087401;28;20109;-71
2022/05/15 11:56:21;;;;;;;7.20;2.67;;;;;;;27.37;27.50;99339.53;5087444;28;20053;-71
2022/05/15 11:58:55;;;;;;;4.20;2.28;;;;;;;26.96;27.66;99377.31;5087186;28;20063;-71
2022/05/15 12:01:42;;;;;;;6.00;2.83;;;;;;;27.18;27.61;99330.09;5086806;28;20053;-71
2022/05/15 12:04:16;;;;;;;5.05;2.50;;;;;;;27.30;28.79;99330.47;5086642;28;20110;-71
2022/05/15 12:06:50;;;;;;;5.05;2.90;;;;;;;27.56;28.06;99319.00;5087254;28;20110;-71
2022/05/15 12:09:51;;;;;;;4.57;3.22;;;;;;;27.71;27.36;99308.09;5086946;28;20052;-71